sensor_id;sensor_type;location;lat;lon;timestamp;P1;durP1;ratioP1;P2;durP2;ratioP2
67997;SDS011;54773;53.388;-1.504;2023-05-15T00:00:40;7.57;;;1.65;;
67997;SDS011;54773;53.388;-1.504;2023-05-15T00:03:24;6.32;;;1.80;;
67997;SDS011;54773;53.388;-1.504;2023-05-15T00:06:08;5.47;;;1.70;;
67997;SDS011;54773;53.388;-1.504;2023-05-15T00:08:52;7.05;;;1.70;;
67997;SDS011;54773;53.388;-1.504;2023-05-15T00:11:37;8.52;;;1.77;;
67997;SDS011;54773;53.388;-1.504;2023-05-15T00:14:21;7.73;;;1.97;;
67997;SDS011;54773;53.388;-1.504;2023-05-15T00:17:08;6.57;;;1.42;;
67997;SDS011;54773;53.388;-1.504;2023-05-15T00:19:53;7.22;;;1.77;;
67997;SDS011;54773;53.388;-1.504;2023-05-15T00:22:41;5.85;;;1.50;;
67997;SDS011;54773;53.388;-1.504;2023-05-15T00:25:25;7.33;;;1.70;;
67997;SDS011;54773;53.388;-1.504;2023-05-15T00:28:10;9.35;;;1.90;;
67997;SDS011;54773;53.388;-1.504;2023-05-15T00:30:53;6.93;;;2.30;;
67997;SDS011;54773;53.388;-1.504;2023-05-15T00:33:37;9.93;;;1.70;;
67997;SDS011;54773;53.388;-1.504;2023-05-15T00:36:21;8.85;;;1.80;;
67997;SDS011;54773;53.388;-1.504;2023-05-15T00:39:08;6.00;;;1.30;;
67997;SDS011;54773;53.388;-1.504;2023-05-15T00:41:52;8.25;;;1.48;;
67997;SDS011;54773;53.388;-1.504;2023-05-15T00:44:36;6.05;;;1.80;;
67997;SDS011;54773;53.388;-1.504;2023-05-15T00:47:24;5.65;;;1.70;;
67997;SDS011;54773;53.388;-1.504;2023-05-15T00:50:09;6.50;;;1.50;;
67997;SDS011;54773;53.388;-1.504;2023-05-15T00:52:54;7.85;;;1.63;;
67997;SDS011;54773;53.388;-1.504;2023-05-15T00:55:38;5.97;;;1.67;;
67997;SDS011;54773;53.388;-1.504;2023-05-15T00:58:24;8.45;;;2.10;;
67997;SDS011;54773;53.388;-1.504;2023-05-15T01:01:10;6.80;;;1.40;;
67997;SDS011;54773;53.388;-1.504;2023-05-15T01:03:54;5.18;;;1.48;;
67997;SDS011;54773;53.388;-1.504;2023-05-15T01:06:38;8.80;;;1.70;;
67997;SDS011;54773;53.388;-1.504;2023-05-15T01:09:22;5.97;;;1.70;;
67997;SDS011;54773;53.388;-1.504;2023-05-15T01:12:13;9.93;;;1.70;;
67997;SDS011;54773;53.388;-1.504;2023-05-15T01:14:59;10.07;;;3.13;;
67997;SDS011;54773;53.388;-1.504;2023-05-15T01:17:43;6.80;;;1.70;;
67997;SDS011;54773;53.388;-1.504;2023-05-15T01:20:28;5.13;;;1.60;;
67997;SDS011;54773;53.388;-1.504;2023-05-15T01:29:36;13.35;;;1.92;;
67997;SDS011;54773;53.388;-1.504;2023-05-15T01:32:37;6.32;;;1.55;;
67997;SDS011;54773;53.388;-1.504;2023-05-15T01:35:37;6.78;;;1.52;;
67997;SDS011;54773;53.388;-1.504;2023-05-15T01:38:42;4.05;;;1.70;;
67997;SDS011;54773;53.388;-1.504;2023-05-15T01:41:59;6.35;;;1.40;;
67997;SDS011;54773;53.388;-1.504;2023-05-15T01:44:50;6.78;;;1.38;;
67997;SDS011;54773;53.388;-1.504;2023-05-15T01:47:54;6.07;;;1.40;;
67997;SDS011;54773;53.388;-1.504;2023-05-15T01:50:42;3.67;;;1.30;;
67997;SDS011;54773;53.388;-1.504;2023-05-15T01:53:30;7.63;;;1.52;;
67997;SDS011;54773;53.388;-1.504;2023-05-15T01:56:21;6.07;;;1.48;;
67997;SDS011;54773;53.388;-1.504;2023-05-15T01:59:07;5.60;;;1.67;;
67997;SDS011;54773;53.388;-1.504;2023-05-15T02:01:51;3.80;;;1.42;;
67997;SDS011;54773;53.388;-1.504;2023-05-15T02:04:36;4.78;;;1.27;;
67997;SDS011;54773;53.388;-1.504;2023-05-15T02:07:21;5.90;;;1.40;;
67997;SDS011;54773;53.388;-1.504;2023-05-15T02:10:06;5.57;;;1.08;;
67997;SDS011;54773;53.388;-1.504;2023-05-15T02:12:51;4.22;;;1.10;;
67997;SDS011;54773;53.388;-1.504;2023-05-15T02:15:36;5.40;;;1.20;;
67997;SDS011;54773;53.388;-1.504;2023-05-15T02:18:20;3.90;;;1.13;;
67997;SDS011;54773;53.388;-1.504;2023-05-15T02:21:04;5.38;;;1.75;;
67997;SDS011;54773;53.388;-1.504;2023-05-15T02:23:48;4.33;;;1.10;;
67997;SDS011;54773;53.388;-1.504;2023-05-15T02:29:50;6.45;;;1.40;;
67997;SDS011;54773;53.388;-1.504;2023-05-15T02:32:55;5.65;;;1.15;;
67997;SDS011;54773;53.388;-1.504;2023-05-15T02:39:09;5.78;;;1.27;;
67997;SDS011;54773;53.388;-1.504;2023-05-15T02:41:45;6.35;;;1.40;;
67997;SDS011;54773;53.388;-1.504;2023-05-15T02:44:31;4.50;;;1.25;;
67997;SDS011;54773;53.388;-1.504;2023-05-15T02:47:15;6.38;;;1.20;;
67997;SDS011;54773;53.388;-1.504;2023-05-15T02:52:44;6.05;;;1.52;;
67997;SDS011;54773;53.388;-1.504;2023-05-15T02:55:28;4.65;;;1.50;;
67997;SDS011;54773;53.388;-1.504;2023-05-15T02:58:12;4.23;;;1.00;;
67997;SDS011;54773;53.388;-1.504;2023-05-15T03:00:56;4.03;;;1.05;;
67997;SDS011;54773;53.388;-1.504;2023-05-15T03:03:40;8.33;;;1.30;;
67997;SDS011;54773;53.388;-1.504;2023-05-15T03:06:24;5.43;;;1.15;;
67997;SDS011;54773;53.388;-1.504;2023-05-15T03:09:08;6.47;;;1.55;;
67997;SDS011;54773;53.388;-1.504;2023-05-15T03:11:52;2.88;;;1.10;;
67997;SDS011;54773;53.388;-1.504;2023-05-15T03:14:36;5.30;;;1.07;;
67997;SDS011;54773;53.388;-1.504;2023-05-15T03:17:20;3.42;;;1.33;;
67997;SDS011;54773;53.388;-1.504;2023-05-15T03:20:04;4.03;;;1.00;;
67997;SDS011;54773;53.388;-1.504;2023-05-15T03:22:48;5.13;;;1.50;;
67997;SDS011;54773;53.388;-1.504;2023-05-15T03:25:32;4.10;;;1.20;;
67997;SDS011;54773;53.388;-1.504;2023-05-15T03:28:16;6.87;;;1.43;;
67997;SDS011;54773;53.388;-1.504;2023-05-15T03:31:00;5.18;;;1.20;;
67997;SDS011;54773;53.388;-1.504;2023-05-15T03:33:45;5.18;;;1.10;;
67997;SDS011;54773;53.388;-1.504;2023-05-15T03:36:32;5.53;;;1.40;;
67997;SDS011;54773;53.388;-1.504;2023-05-15T03:39:16;5.23;;;1.60;;
67997;SDS011;54773;53.388;-1.504;2023-05-15T03:42:00;5.65;;;1.23;;
67997;SDS011;54773;53.388;-1.504;2023-05-15T03:44:44;10.07;;;1.30;;
67997;SDS011;54773;53.388;-1.504;2023-05-15T03:47:28;9.37;;;1.40;;
67997;SDS011;54773;53.388;-1.504;2023-05-15T03:50:12;7.63;;;1.65;;
67997;SDS011;54773;53.388;-1.504;2023-05-15T03:52:55;5.82;;;1.55;;
67997;SDS011;54773;53.388;-1.504;2023-05-15T03:55:39;5.27;;;1.23;;
67997;SDS011;54773;53.388;-1.504;2023-05-15T03:58:23;6.93;;;1.47;;
67997;SDS011;54773;53.388;-1.504;2023-05-15T04:01:08;7.13;;;1.27;;
67997;SDS011;54773;53.388;-1.504;2023-05-15T04:03:52;7.18;;;1.48;;
67997;SDS011;54773;53.388;-1.504;2023-05-15T04:06:36;4.78;;;1.52;;
67997;SDS011;54773;53.388;-1.504;2023-05-15T04:09:20;5.40;;;1.57;;
67997;SDS011;54773;53.388;-1.504;2023-05-15T04:12:04;5.57;;;1.40;;
67997;SDS011;54773;53.388;-1.504;2023-05-15T04:14:48;7.40;;;1.60;;
67997;SDS011;54773;53.388;-1.504;2023-05-15T04:17:32;5.10;;;2.30;;
67997;SDS011;54773;53.388;-1.504;2023-05-15T04:20:17;10.50;;;2.07;;
67997;SDS011;54773;53.388;-1.504;2023-05-15T04:23:02;5.38;;;1.60;;
67997;SDS011;54773;53.388;-1.504;2023-05-15T04:25:49;11.70;;;1.80;;
67997;SDS011;54773;53.388;-1.504;2023-05-15T04:28:36;12.13;;;1.98;;
67997;SDS011;54773;53.388;-1.504;2023-05-15T04:31:20;8.82;;;1.77;;
67997;SDS011;54773;53.388;-1.504;2023-05-15T04:34:04;5.80;;;1.65;;
67997;SDS011;54773;53.388;-1.504;2023-05-15T04:36:48;6.10;;;2.35;;
67997;SDS011;54773;53.388;-1.504;2023-05-15T04:42:17;7.55;;;1.75;;
67997;SDS011;54773;53.388;-1.504;2023-05-15T04:45:01;6.63;;;1.60;;
67997;SDS011;54773;53.388;-1.504;2023-05-15T04:47:46;8.50;;;2.13;;
67997;SDS011;54773;53.388;-1.504;2023-05-15T04:50:30;5.97;;;1.20;;
67997;SDS011;54773;53.388;-1.504;2023-05-15T04:53:13;7.33;;;1.60;;
67997;SDS011;54773;53.388;-1.504;2023-05-15T04:55:57;9.77;;;1.60;;
67997;SDS011;54773;53.388;-1.504;2023-05-15T04:58:44;4.93;;;1.40;;
67997;SDS011;54773;53.388;-1.504;2023-05-15T05:01:29;9.38;;;1.80;;
67997;SDS011;54773;53.388;-1.504;2023-05-15T05:04:14;8.70;;;2.10;;
67997;SDS011;54773;53.388;-1.504;2023-05-15T05:07:01;4.85;;;1.38;;
67997;SDS011;54773;53.388;-1.504;2023-05-15T05:09:48;12.10;;;1.63;;
67997;SDS011;54773;53.388;-1.504;2023-05-15T05:12:32;6.77;;;1.73;;
67997;SDS011;54773;53.388;-1.504;2023-05-15T05:15:16;7.20;;;1.80;;
67997;SDS011;54773;53.388;-1.504;2023-05-15T05:18:00;6.13;;;1.80;;
67997;SDS011;54773;53.388;-1.504;2023-05-15T05:20:44;7.90;;;1.80;;
67997;SDS011;54773;53.388;-1.504;2023-05-15T05:23:28;7.40;;;2.13;;
67997;SDS011;54773;53.388;-1.504;2023-05-15T05:26:13;5.68;;;1.52;;
67997;SDS011;54773;53.388;-1.504;2023-05-15T05:28:57;8.27;;;1.73;;
67997;SDS011;54773;53.388;-1.504;2023-05-15T05:31:41;7.53;;;1.92;;
67997;SDS011;54773;53.388;-1.504;2023-05-15T05:34:25;7.45;;;1.77;;
67997;SDS011;54773;53.388;-1.504;2023-05-15T05:37:09;6.40;;;1.50;;
67997;SDS011;54773;53.388;-1.504;2023-05-15T05:39:53;10.77;;;2.40;;
67997;SDS011;54773;53.388;-1.504;2023-05-15T05:42:37;5.15;;;1.75;;
67997;SDS011;54773;53.388;-1.504;2023-05-15T05:45:21;8.53;;;1.80;;
67997;SDS011;54773;53.388;-1.504;2023-05-15T05:48:05;5.10;;;1.50;;
67997;SDS011;54773;53.388;-1.504;2023-05-15T05:50:49;6.13;;;1.57;;
67997;SDS011;54773;53.388;-1.504;2023-05-15T05:53:34;6.45;;;1.45;;
67997;SDS011;54773;53.388;-1.504;2023-05-15T05:56:18;9.60;;;1.97;;
67997;SDS011;54773;53.388;-1.504;2023-05-15T05:59:02;5.68;;;1.55;;
67997;SDS011;54773;53.388;-1.504;2023-05-15T06:01:47;7.10;;;2.03;;
67997;SDS011;54773;53.388;-1.504;2023-05-15T06:04:33;9.20;;;1.80;;
67997;SDS011;54773;53.388;-1.504;2023-05-15T06:07:17;14.23;;;1.63;;
67997;SDS011;54773;53.388;-1.504;2023-05-15T06:10:01;5.93;;;1.90;;
67997;SDS011;54773;53.388;-1.504;2023-05-15T06:12:45;11.68;;;1.70;;
67997;SDS011;54773;53.388;-1.504;2023-05-15T06:15:30;5.53;;;1.77;;
67997;SDS011;54773;53.388;-1.504;2023-05-15T06:18:14;8.30;;;1.40;;
67997;SDS011;54773;53.388;-1.504;2023-05-15T06:20:57;8.77;;;1.60;;
67997;SDS011;54773;53.388;-1.504;2023-05-15T06:23:42;16.27;;;1.98;;
67997;SDS011;54773;53.388;-1.504;2023-05-15T06:26:27;4.80;;;1.40;;
67997;SDS011;54773;53.388;-1.504;2023-05-15T06:29:14;7.75;;;1.65;;
67997;SDS011;54773;53.388;-1.504;2023-05-15T06:31:59;5.68;;;1.80;;
67997;SDS011;54773;53.388;-1.504;2023-05-15T06:34:42;5.97;;;1.33;;
67997;SDS011;54773;53.388;-1.504;2023-05-15T06:37:31;7.40;;;1.30;;
67997;SDS011;54773;53.388;-1.504;2023-05-15T06:40:15;5.68;;;1.20;;
67997;SDS011;54773;53.388;-1.504;2023-05-15T06:43:02;4.28;;;1.42;;
67997;SDS011;54773;53.388;-1.504;2023-05-15T06:45:46;6.40;;;1.38;;
67997;SDS011;54773;53.388;-1.504;2023-05-15T06:48:30;5.13;;;1.60;;
67997;SDS011;54773;53.388;-1.504;2023-05-15T06:51:14;7.57;;;1.77;;
67997;SDS011;54773;53.388;-1.504;2023-05-15T06:54:01;6.57;;;1.23;;
67997;SDS011;54773;53.388;-1.504;2023-05-15T06:56:45;8.10;;;1.55;;
67997;SDS011;54773;53.388;-1.504;2023-05-15T06:59:29;4.90;;;1.30;;
67997;SDS011;54773;53.388;-1.504;2023-05-15T07:02:17;6.88;;;1.20;;
67997;SDS011;54773;53.388;-1.504;2023-05-15T07:05:01;8.30;;;1.27;;
67997;SDS011;54773;53.388;-1.504;2023-05-15T07:07:49;4.72;;;1.00;;
67997;SDS011;54773;53.388;-1.504;2023-05-15T07:10:33;3.58;;;1.08;;
67997;SDS011;54773;53.388;-1.504;2023-05-15T07:13:21;4.13;;;1.10;;
67997;SDS011;54773;53.388;-1.504;2023-05-15T07:16:05;7.47;;;1.10;;
67997;SDS011;54773;53.388;-1.504;2023-05-15T07:18:49;6.22;;;1.23;;
67997;SDS011;54773;53.388;-1.504;2023-05-15T07:21:34;6.93;;;1.17;;
67997;SDS011;54773;53.388;-1.504;2023-05-15T07:24:18;6.10;;;1.33;;
67997;SDS011;54773;53.388;-1.504;2023-05-15T07:27:02;5.72;;;1.20;;
67997;SDS011;54773;53.388;-1.504;2023-05-15T07:29:46;5.70;;;1.40;;
67997;SDS011;54773;53.388;-1.504;2023-05-15T07:32:32;5.55;;;1.27;;
67997;SDS011;54773;53.388;-1.504;2023-05-15T07:35:16;6.25;;;1.48;;
67997;SDS011;54773;53.388;-1.504;2023-05-15T07:38:01;3.38;;;1.08;;
67997;SDS011;54773;53.388;-1.504;2023-05-15T07:40:45;5.95;;;1.33;;
67997;SDS011;54773;53.388;-1.504;2023-05-15T07:43:30;5.63;;;1.80;;
67997;SDS011;54773;53.388;-1.504;2023-05-15T07:46:14;7.65;;;1.33;;
67997;SDS011;54773;53.388;-1.504;2023-05-15T07:48:58;5.60;;;1.20;;
67997;SDS011;54773;53.388;-1.504;2023-05-15T07:51:45;5.13;;;1.30;;
67997;SDS011;54773;53.388;-1.504;2023-05-15T07:54:29;5.22;;;1.30;;
67997;SDS011;54773;53.388;-1.504;2023-05-15T07:57:14;7.90;;;1.23;;
67997;SDS011;54773;53.388;-1.504;2023-05-15T07:59:58;5.07;;;1.10;;
67997;SDS011;54773;53.388;-1.504;2023-05-15T08:02:45;5.95;;;1.13;;
67997;SDS011;54773;53.388;-1.504;2023-05-15T08:05:30;6.50;;;1.17;;
67997;SDS011;54773;53.388;-1.504;2023-05-15T08:08:13;4.80;;;1.10;;
67997;SDS011;54773;53.388;-1.504;2023-05-15T08:10:58;4.60;;;0.90;;
67997;SDS011;54773;53.388;-1.504;2023-05-15T08:13:42;4.07;;;1.00;;
67997;SDS011;54773;53.388;-1.504;2023-05-15T08:16:29;4.22;;;0.95;;
67997;SDS011;54773;53.388;-1.504;2023-05-15T08:19:13;4.00;;;0.85;;
67997;SDS011;54773;53.388;-1.504;2023-05-15T08:21:57;4.32;;;0.80;;
67997;SDS011;54773;53.388;-1.504;2023-05-15T08:24:42;4.07;;;0.88;;
67997;SDS011;54773;53.388;-1.504;2023-05-15T08:27:26;6.00;;;1.15;;
67997;SDS011;54773;53.388;-1.504;2023-05-15T08:30:10;4.72;;;1.02;;
67997;SDS011;54773;53.388;-1.504;2023-05-15T08:32:55;3.85;;;0.70;;
67997;SDS011;54773;53.388;-1.504;2023-05-15T08:35:39;3.22;;;0.70;;
67997;SDS011;54773;53.388;-1.504;2023-05-15T08:38:23;4.13;;;0.80;;
67997;SDS011;54773;53.388;-1.504;2023-05-15T08:41:20;4.15;;;0.70;;
67997;SDS011;54773;53.388;-1.504;2023-05-15T08:44:13;4.00;;;0.98;;
67997;SDS011;54773;53.388;-1.504;2023-05-15T08:47:01;1.88;;;0.63;;
67997;SDS011;54773;53.388;-1.504;2023-05-15T08:49:50;3.85;;;0.93;;
67997;SDS011;54773;53.388;-1.504;2023-05-15T08:52:49;5.05;;;0.70;;
67997;SDS011;54773;53.388;-1.504;2023-05-15T08:55:40;3.10;;;0.57;;
67997;SDS011;54773;53.388;-1.504;2023-05-15T08:58:31;4.20;;;0.80;;
67997;SDS011;54773;53.388;-1.504;2023-05-15T09:01:15;3.10;;;0.77;;
67997;SDS011;54773;53.388;-1.504;2023-05-15T09:03:59;2.90;;;0.60;;
67997;SDS011;54773;53.388;-1.504;2023-05-15T09:06:43;2.63;;;0.50;;
67997;SDS011;54773;53.388;-1.504;2023-05-15T09:09:31;4.40;;;0.68;;
67997;SDS011;54773;53.388;-1.504;2023-05-15T09:12:17;5.82;;;0.93;;
67997;SDS011;54773;53.388;-1.504;2023-05-15T09:15:08;2.42;;;0.70;;
67997;SDS011;54773;53.388;-1.504;2023-05-15T09:17:53;2.83;;;0.77;;
67997;SDS011;54773;53.388;-1.504;2023-05-15T09:20:37;3.80;;;1.00;;
67997;SDS011;54773;53.388;-1.504;2023-05-15T09:23:22;2.22;;;0.50;;
67997;SDS011;54773;53.388;-1.504;2023-05-15T09:26:10;3.53;;;0.80;;
67997;SDS011;54773;53.388;-1.504;2023-05-15T09:29:00;3.28;;;0.82;;
67997;SDS011;54773;53.388;-1.504;2023-05-15T09:31:45;3.50;;;0.65;;
67997;SDS011;54773;53.388;-1.504;2023-05-15T09:34:30;3.50;;;0.60;;
67997;SDS011;54773;53.388;-1.504;2023-05-15T09:37:28;4.00;;;0.82;;
67997;SDS011;54773;53.388;-1.504;2023-05-15T09:40:17;3.05;;;0.80;;
67997;SDS011;54773;53.388;-1.504;2023-05-15T09:43:02;2.85;;;1.15;;
67997;SDS011;54773;53.388;-1.504;2023-05-15T09:45:46;3.28;;;0.57;;
67997;SDS011;54773;53.388;-1.504;2023-05-15T09:51:15;2.47;;;0.70;;
67997;SDS011;54773;53.388;-1.504;2023-05-15T09:54:01;5.72;;;1.02;;
67997;SDS011;54773;53.388;-1.504;2023-05-15T09:56:49;4.53;;;0.82;;
67997;SDS011;54773;53.388;-1.504;2023-05-15T09:59:33;3.22;;;0.63;;
67997;SDS011;54773;53.388;-1.504;2023-05-15T10:05:25;3.97;;;0.73;;
67997;SDS011;54773;53.388;-1.504;2023-05-15T10:08:09;3.30;;;0.65;;
67997;SDS011;54773;53.388;-1.504;2023-05-15T10:10:54;4.75;;;0.90;;
67997;SDS011;54773;53.388;-1.504;2023-05-15T10:13:42;3.42;;;0.77;;
67997;SDS011;54773;53.388;-1.504;2023-05-15T10:16:26;5.05;;;0.70;;
67997;SDS011;54773;53.388;-1.504;2023-05-15T10:19:12;2.53;;;0.70;;
67997;SDS011;54773;53.388;-1.504;2023-05-15T10:21:56;3.05;;;0.80;;
67997;SDS011;54773;53.388;-1.504;2023-05-15T10:24:43;4.80;;;0.80;;
67997;SDS011;54773;53.388;-1.504;2023-05-15T10:27:29;1.95;;;0.77;;
67997;SDS011;54773;53.388;-1.504;2023-05-15T10:30:14;2.88;;;0.60;;
67997;SDS011;54773;53.388;-1.504;2023-05-15T10:33:05;3.30;;;0.77;;
67997;SDS011;54773;53.388;-1.504;2023-05-15T10:35:50;2.05;;;0.63;;
67997;SDS011;54773;53.388;-1.504;2023-05-15T10:38:35;2.75;;;0.55;;
67997;SDS011;54773;53.388;-1.504;2023-05-15T10:41:23;2.72;;;0.80;;
67997;SDS011;54773;53.388;-1.504;2023-05-15T10:44:10;3.20;;;0.60;;
67997;SDS011;54773;53.388;-1.504;2023-05-15T10:46:54;1.48;;;0.47;;
67997;SDS011;54773;53.388;-1.504;2023-05-15T10:49:39;2.63;;;0.60;;
67997;SDS011;54773;53.388;-1.504;2023-05-15T10:52:23;3.28;;;0.68;;
67997;SDS011;54773;53.388;-1.504;2023-05-15T10:55:12;1.95;;;0.60;;
67997;SDS011;54773;53.388;-1.504;2023-05-15T10:58:00;3.55;;;0.57;;
67997;SDS011;54773;53.388;-1.504;2023-05-15T11:00:45;4.30;;;0.60;;
67997;SDS011;54773;53.388;-1.504;2023-05-15T11:03:36;2.70;;;0.60;;
67997;SDS011;54773;53.388;-1.504;2023-05-15T11:06:27;2.60;;;0.65;;
67997;SDS011;54773;53.388;-1.504;2023-05-15T11:12:03;2.67;;;0.68;;
67997;SDS011;54773;53.388;-1.504;2023-05-15T11:17:38;3.20;;;0.60;;
67997;SDS011;54773;53.388;-1.504;2023-05-15T11:24:01;2.92;;;1.00;;
67997;SDS011;54773;53.388;-1.504;2023-05-15T11:26:50;2.00;;;0.57;;
67997;SDS011;54773;53.388;-1.504;2023-05-15T11:29:35;2.83;;;0.70;;
67997;SDS011;54773;53.388;-1.504;2023-05-15T11:38:17;1.88;;;0.57;;
67997;SDS011;54773;53.388;-1.504;2023-05-15T11:41:17;2.58;;;0.57;;
67997;SDS011;54773;53.388;-1.504;2023-05-15T11:44:02;2.63;;;0.70;;
67997;SDS011;54773;53.388;-1.504;2023-05-15T11:46:46;3.50;;;1.10;;
67997;SDS011;54773;53.388;-1.504;2023-05-15T11:49:31;3.30;;;0.82;;
67997;SDS011;54773;53.388;-1.504;2023-05-15T11:52:15;2.53;;;0.65;;
67997;SDS011;54773;53.388;-1.504;2023-05-15T11:54:59;2.55;;;0.70;;
67997;SDS011;54773;53.388;-1.504;2023-05-15T11:57:44;2.53;;;0.60;;
67997;SDS011;54773;53.388;-1.504;2023-05-15T12:00:29;4.80;;;1.02;;
67997;SDS011;54773;53.388;-1.504;2023-05-15T12:03:20;3.53;;;0.52;;
67997;SDS011;54773;53.388;-1.504;2023-05-15T12:06:06;3.53;;;0.93;;
67997;SDS011;54773;53.388;-1.504;2023-05-15T12:08:51;2.53;;;0.60;;
67997;SDS011;54773;53.388;-1.504;2023-05-15T12:14:26;4.53;;;0.95;;
67997;SDS011;54773;53.388;-1.504;2023-05-15T12:17:11;4.03;;;0.90;;
67997;SDS011;54773;53.388;-1.504;2023-05-15T12:19:55;1.98;;;0.52;;
67997;SDS011;54773;53.388;-1.504;2023-05-15T12:22:40;2.72;;;0.60;;
67997;SDS011;54773;53.388;-1.504;2023-05-15T12:25:27;1.48;;;0.50;;
67997;SDS011;54773;53.388;-1.504;2023-05-15T12:28:14;5.70;;;0.85;;
67997;SDS011;54773;53.388;-1.504;2023-05-15T12:30:58;3.33;;;0.65;;
67997;SDS011;54773;53.388;-1.504;2023-05-15T12:33:43;3.78;;;0.70;;
67997;SDS011;54773;53.388;-1.504;2023-05-15T12:36:27;1.13;;;0.43;;
67997;SDS011;54773;53.388;-1.504;2023-05-15T12:39:18;2.03;;;0.60;;
67997;SDS011;54773;53.388;-1.504;2023-05-15T12:42:02;1.95;;;0.60;;
67997;SDS011;54773;53.388;-1.504;2023-05-15T12:44:50;3.22;;;0.73;;
67997;SDS011;54773;53.388;-1.504;2023-05-15T12:47:37;1.75;;;0.57;;
67997;SDS011;54773;53.388;-1.504;2023-05-15T12:50:22;2.83;;;0.75;;
67997;SDS011;54773;53.388;-1.504;2023-05-15T12:53:06;2.00;;;0.60;;
67997;SDS011;54773;53.388;-1.504;2023-05-15T12:55:50;2.25;;;0.68;;
67997;SDS011;54773;53.388;-1.504;2023-05-15T12:58:34;3.78;;;0.65;;
67997;SDS011;54773;53.388;-1.504;2023-05-15T13:01:19;3.25;;;0.70;;
67997;SDS011;54773;53.388;-1.504;2023-05-15T13:04:04;1.42;;;0.40;;
67997;SDS011;54773;53.388;-1.504;2023-05-15T13:06:49;2.60;;;0.60;;
67997;SDS011;54773;53.388;-1.504;2023-05-15T13:09:33;1.77;;;0.40;;
67997;SDS011;54773;53.388;-1.504;2023-05-15T13:12:18;2.95;;;0.65;;
67997;SDS011;54773;53.388;-1.504;2023-05-15T13:15:06;6.10;;;0.68;;
67997;SDS011;54773;53.388;-1.504;2023-05-15T13:17:51;2.85;;;0.60;;
67997;SDS011;54773;53.388;-1.504;2023-05-15T13:20:40;2.97;;;0.50;;
67997;SDS011;54773;53.388;-1.504;2023-05-15T13:23:28;2.35;;;0.50;;
67997;SDS011;54773;53.388;-1.504;2023-05-15T13:26:12;6.57;;;0.80;;
67997;SDS011;54773;53.388;-1.504;2023-05-15T13:28:59;2.05;;;0.80;;
67997;SDS011;54773;53.388;-1.504;2023-05-15T13:31:44;2.50;;;0.60;;
67997;SDS011;54773;53.388;-1.504;2023-05-15T13:34:29;1.27;;;0.40;;
67997;SDS011;54773;53.388;-1.504;2023-05-15T13:37:14;4.10;;;0.50;;
67997;SDS011;54773;53.388;-1.504;2023-05-15T13:39:59;3.90;;;0.57;;
67997;SDS011;54773;53.388;-1.504;2023-05-15T13:42:45;3.65;;;0.77;;
67997;SDS011;54773;53.388;-1.504;2023-05-15T13:45:29;3.05;;;0.70;;
67997;SDS011;54773;53.388;-1.504;2023-05-15T13:48:14;2.78;;;0.57;;
67997;SDS011;54773;53.388;-1.504;2023-05-15T13:50:59;3.67;;;0.70;;
67997;SDS011;54773;53.388;-1.504;2023-05-15T13:53:43;1.70;;;0.55;;
67997;SDS011;54773;53.388;-1.504;2023-05-15T13:56:31;1.63;;;0.50;;
67997;SDS011;54773;53.388;-1.504;2023-05-15T13:59:17;3.28;;;0.68;;
67997;SDS011;54773;53.388;-1.504;2023-05-15T14:02:01;2.30;;;0.60;;
67997;SDS011;54773;53.388;-1.504;2023-05-15T14:04:45;1.92;;;0.50;;
67997;SDS011;54773;53.388;-1.504;2023-05-15T14:07:29;2.80;;;0.40;;
67997;SDS011;54773;53.388;-1.504;2023-05-15T14:10:14;1.48;;;0.40;;
67997;SDS011;54773;53.388;-1.504;2023-05-15T14:12:59;2.50;;;0.50;;
67997;SDS011;54773;53.388;-1.504;2023-05-15T14:15:44;3.53;;;0.63;;
67997;SDS011;54773;53.388;-1.504;2023-05-15T14:18:31;2.55;;;0.70;;
67997;SDS011;54773;53.388;-1.504;2023-05-15T14:21:15;1.10;;;0.30;;
67997;SDS011;54773;53.388;-1.504;2023-05-15T14:23:59;1.52;;;0.40;;
67997;SDS011;54773;53.388;-1.504;2023-05-15T14:26:44;1.85;;;0.60;;
67997;SDS011;54773;53.388;-1.504;2023-05-15T14:29:27;2.80;;;0.70;;
67997;SDS011;54773;53.388;-1.504;2023-05-15T14:32:18;1.75;;;0.45;;
67997;SDS011;54773;53.388;-1.504;2023-05-15T14:35:02;4.10;;;0.65;;
67997;SDS011;54773;53.388;-1.504;2023-05-15T14:37:47;0.93;;;0.43;;
67997;SDS011;54773;53.388;-1.504;2023-05-15T14:40:31;1.60;;;0.63;;
67997;SDS011;54773;53.388;-1.504;2023-05-15T14:43:14;4.10;;;0.82;;
67997;SDS011;54773;53.388;-1.504;2023-05-15T14:45:59;2.58;;;0.68;;
67997;SDS011;54773;53.388;-1.504;2023-05-15T14:48:42;1.92;;;0.30;;
67997;SDS011;54773;53.388;-1.504;2023-05-15T14:51:26;1.45;;;0.32;;
67997;SDS011;54773;53.388;-1.504;2023-05-15T14:54:11;2.97;;;0.50;;
67997;SDS011;54773;53.388;-1.504;2023-05-15T14:56:56;3.25;;;0.60;;
67997;SDS011;54773;53.388;-1.504;2023-05-15T14:59:41;2.63;;;0.50;;
67997;SDS011;54773;53.388;-1.504;2023-05-15T15:02:25;2.25;;;0.70;;
67997;SDS011;54773;53.388;-1.504;2023-05-15T15:05:09;4.63;;;0.80;;
67997;SDS011;54773;53.388;-1.504;2023-05-15T15:08:00;1.48;;;0.50;;
67997;SDS011;54773;53.388;-1.504;2023-05-15T15:10:47;1.58;;;0.50;;
67997;SDS011;54773;53.388;-1.504;2023-05-15T15:13:32;2.75;;;0.95;;
67997;SDS011;54773;53.388;-1.504;2023-05-15T15:16:16;2.90;;;0.85;;
67997;SDS011;54773;53.388;-1.504;2023-05-15T15:19:00;2.53;;;0.80;;
67997;SDS011;54773;53.388;-1.504;2023-05-15T15:21:44;2.33;;;0.70;;
67997;SDS011;54773;53.388;-1.504;2023-05-15T15:24:28;2.22;;;0.47;;
67997;SDS011;54773;53.388;-1.504;2023-05-15T15:27:13;2.55;;;0.50;;
67997;SDS011;54773;53.388;-1.504;2023-05-15T15:29:57;2.58;;;0.50;;
67997;SDS011;54773;53.388;-1.504;2023-05-15T15:32:42;3.35;;;0.60;;
67997;SDS011;54773;53.388;-1.504;2023-05-15T15:35:27;2.08;;;0.55;;
67997;SDS011;54773;53.388;-1.504;2023-05-15T15:38:11;1.80;;;0.60;;
67997;SDS011;54773;53.388;-1.504;2023-05-15T15:40:57;4.10;;;0.98;;
67997;SDS011;54773;53.388;-1.504;2023-05-15T15:43:41;3.58;;;0.82;;
67997;SDS011;54773;53.388;-1.504;2023-05-15T15:46:25;3.08;;;0.65;;
67997;SDS011;54773;53.388;-1.504;2023-05-15T15:49:09;1.70;;;0.50;;
67997;SDS011;54773;53.388;-1.504;2023-05-15T15:51:53;1.65;;;0.60;;
67997;SDS011;54773;53.388;-1.504;2023-05-15T15:54:37;4.50;;;1.00;;
67997;SDS011;54773;53.388;-1.504;2023-05-15T15:57:23;3.28;;;0.70;;
67997;SDS011;54773;53.388;-1.504;2023-05-15T16:00:07;3.97;;;0.70;;
67997;SDS011;54773;53.388;-1.504;2023-05-15T16:02:52;3.40;;;0.80;;
67997;SDS011;54773;53.388;-1.504;2023-05-15T16:05:36;2.35;;;0.50;;
67997;SDS011;54773;53.388;-1.504;2023-05-15T16:08:20;2.45;;;0.60;;
67997;SDS011;54773;53.388;-1.504;2023-05-15T16:11:04;1.73;;;0.70;;
67997;SDS011;54773;53.388;-1.504;2023-05-15T16:13:48;2.75;;;0.60;;
67997;SDS011;54773;53.388;-1.504;2023-05-15T16:16:33;3.22;;;0.70;;
67997;SDS011;54773;53.388;-1.504;2023-05-15T16:19:20;2.95;;;0.60;;
67997;SDS011;54773;53.388;-1.504;2023-05-15T16:22:04;3.05;;;0.60;;
67997;SDS011;54773;53.388;-1.504;2023-05-15T16:24:48;2.67;;;0.80;;
67997;SDS011;54773;53.388;-1.504;2023-05-15T16:27:35;2.53;;;0.80;;
67997;SDS011;54773;53.388;-1.504;2023-05-15T16:30:19;4.82;;;0.82;;
67997;SDS011;54773;53.388;-1.504;2023-05-15T16:33:03;3.65;;;0.90;;
67997;SDS011;54773;53.388;-1.504;2023-05-15T16:35:47;11.38;;;3.67;;
67997;SDS011;54773;53.388;-1.504;2023-05-15T16:38:31;4.50;;;0.90;;
67997;SDS011;54773;53.388;-1.504;2023-05-15T16:41:15;25.80;;;6.95;;
67997;SDS011;54773;53.388;-1.504;2023-05-15T16:43:59;19.35;;;5.85;;
67997;SDS011;54773;53.388;-1.504;2023-05-15T16:46:43;10.48;;;3.70;;
67997;SDS011;54773;53.388;-1.504;2023-05-15T16:49:26;5.13;;;1.38;;
67997;SDS011;54773;53.388;-1.504;2023-05-15T16:52:10;3.95;;;0.85;;
67997;SDS011;54773;53.388;-1.504;2023-05-15T16:54:54;3.25;;;1.08;;
67997;SDS011;54773;53.388;-1.504;2023-05-15T16:57:38;4.85;;;1.30;;
67997;SDS011;54773;53.388;-1.504;2023-05-15T17:00:23;4.35;;;0.98;;
67997;SDS011;54773;53.388;-1.504;2023-05-15T17:03:07;3.47;;;1.10;;